createdAt,value
2023-03-12T00:00:11.487Z,7.27
2023-03-12T00:02:40.088Z,7.27
2023-03-12T00:05:09.868Z,7.26
2023-03-12T00:07:39.803Z,7.23
2023-03-12T00:10:10.089Z,7.21
2023-03-12T00:12:38.561Z,7.20
2023-03-12T00:15:09.266Z,7.18
2023-03-12T00:17:37.975Z,7.17
2023-03-12T00:20:08.004Z,7.16
2023-03-12T00:22:36.528Z,7.15
2023-03-12T00:25:09.411Z,7.12
2023-03-12T00:27:38.288Z,7.11
2023-03-12T00:30:09.046Z,7.08
2023-03-12T00:32:38.162Z,7.07
2023-03-12T00:35:08.772Z,7.03
2023-03-12T00:37:38.305Z,7.03
2023-03-12T00:40:11.496Z,7.02
2023-03-12T00:42:39.977Z,7.00
2023-03-12T00:45:09.903Z,6.99
2023-03-12T00:47:38.368Z,6.97
2023-03-12T00:50:07.970Z,6.97
2023-03-12T00:52:36.616Z,6.97
2023-03-12T00:55:05.646Z,6.95
2023-03-12T00:57:35.464Z,6.93
2023-03-12T01:00:06.072Z,6.92
2023-03-12T01:02:34.575Z,6.92
2023-03-12T01:05:03.060Z,6.92
2023-03-12T01:07:31.458Z,6.91
2023-03-12T01:09:59.970Z,6.90
2023-03-12T01:12:28.359Z,6.89
2023-03-12T01:14:58.217Z,6.88
2023-03-12T01:17:26.706Z,6.87
2023-03-12T01:19:55.101Z,6.86
2023-03-12T01:22:23.594Z,6.85
2023-03-12T01:24:52.025Z,6.85
2023-03-12T01:27:20.854Z,6.83
2023-03-12T01:29:49.274Z,6.81
2023-03-12T01:32:19.128Z,6.80
2023-03-12T01:34:47.550Z,6.78
2023-03-12T01:37:16.108Z,6.77
2023-03-12T01:39:44.552Z,6.75
2023-03-12T01:42:12.969Z,6.74
2023-03-12T01:44:55.913Z,6.71
2023-03-12T01:47:26.600Z,6.71
2023-03-12T01:49:57.003Z,6.68
2023-03-12T01:52:29.247Z,6.68
2023-03-12T01:55:04.345Z,6.66
2023-03-12T01:57:38.198Z,6.65
2023-03-12T02:00:13.866Z,6.64
2023-03-12T02:02:45.295Z,6.63
2023-03-12T02:05:23.008Z,6.61
2023-03-12T02:07:51.432Z,6.60
2023-03-12T02:10:20.201Z,6.57
2023-03-12T02:12:48.698Z,6.58
2023-03-12T02:15:17.458Z,6.56
2023-03-12T02:17:47.477Z,6.56
2023-03-12T02:20:22.353Z,6.56
2023-03-12T02:23:03.990Z,6.56
2023-03-12T02:25:40.909Z,6.54
2023-03-12T02:28:14.267Z,6.54
2023-03-12T02:30:46.027Z,6.53
2023-03-12T02:33:16.247Z,6.52
2023-03-12T02:35:46.600Z,6.53
2023-03-12T02:38:41.662Z,6.49
2023-03-12T02:41:25.200Z,6.49
2023-03-12T02:44:02.439Z,6.46
2023-03-12T02:46:35.193Z,6.45
2023-03-12T02:49:04.022Z,6.45
2023-03-12T02:51:32.451Z,6.44
2023-03-12T02:54:00.870Z,6.44
2023-03-12T02:56:31.187Z,6.44
2023-03-12T02:59:01.482Z,6.44
2023-03-12T03:01:33.850Z,6.44
2023-03-12T03:04:03.490Z,6.44
2023-03-12T03:06:32.539Z,6.44
2023-03-12T03:09:01.188Z,6.42
2023-03-12T03:11:31.084Z,6.41
2023-03-12T03:13:59.488Z,6.40
2023-03-12T03:16:28.001Z,6.38
2023-03-12T03:18:56.425Z,6.36
2023-03-12T03:21:24.848Z,6.36
2023-03-12T03:23:53.829Z,6.35
2023-03-12T03:26:24.704Z,6.33
2023-03-12T03:28:54.566Z,6.31
2023-03-12T03:31:23.349Z,6.31
2023-03-12T03:33:52.150Z,6.30
2023-03-12T03:36:20.968Z,6.28
2023-03-12T03:38:49.367Z,6.27
2023-03-12T03:41:18.422Z,6.26
2023-03-12T03:43:46.992Z,6.24
2023-03-12T03:46:17.595Z,6.23
2023-03-12T03:48:46.067Z,6.22
2023-03-12T03:51:14.500Z,6.21
2023-03-12T03:53:42.900Z,6.20
2023-03-12T03:56:14.072Z,6.20
2023-03-12T03:58:42.635Z,6.20
2023-03-12T04:01:11.559Z,6.19
2023-03-12T04:03:41.472Z,6.19
2023-03-12T04:06:10.188Z,6.19
2023-03-12T04:08:39.232Z,6.17
2023-03-12T04:11:14.921Z,6.17
2023-03-12T04:13:44.030Z,6.17
2023-03-12T04:16:13.903Z,6.15
2023-03-12T04:18:44.269Z,6.15
2023-03-12T04:21:14.653Z,6.15
2023-03-12T04:23:43.487Z,6.13
2023-03-12T04:26:11.985Z,6.12
2023-03-12T04:28:40.486Z,6.13
2023-03-12T04:31:10.185Z,6.12
2023-03-12T04:33:40.488Z,6.10
2023-03-12T04:36:10.867Z,6.08
2023-03-12T04:38:39.406Z,6.08
2023-03-12T04:41:10.777Z,6.08
2023-03-12T04:43:39.228Z,6.07
2023-03-12T04:46:08.949Z,6.05
2023-03-12T04:48:39.177Z,6.05
2023-03-12T04:51:09.242Z,6.03
2023-03-12T04:53:38.072Z,6.03
2023-03-12T04:56:07.240Z,6.01
2023-03-12T04:58:35.950Z,6.01
2023-03-12T05:01:05.677Z,5.99
2023-03-12T05:03:34.219Z,5.99
2023-03-12T05:06:02.610Z,6.01
2023-03-12T05:08:32.377Z,6.00
2023-03-12T05:11:00.827Z,5.99
2023-03-12T05:13:29.216Z,5.98
2023-03-12T05:15:57.775Z,5.99
2023-03-12T05:18:26.978Z,5.99
2023-03-12T05:21:03.566Z,5.98
2023-03-12T05:23:33.986Z,5.99
2023-03-12T05:26:02.837Z,5.98
2023-03-12T05:28:31.848Z,5.99
2023-03-12T05:31:02.265Z,5.98
2023-03-12T05:33:31.356Z,6.01
2023-03-12T05:35:59.866Z,6.01
2023-03-12T05:38:28.286Z,6.03
2023-03-12T05:41:00.289Z,6.06
2023-03-12T05:43:29.948Z,6.07
2023-03-12T05:46:01.993Z,6.09
2023-03-12T05:48:30.615Z,6.10
2023-03-12T05:50:59.457Z,6.10
2023-03-12T05:53:28.015Z,6.11
2023-03-12T05:56:04.764Z,6.12
2023-03-12T05:58:33.458Z,6.16
2023-03-12T06:01:02.792Z,6.19
2023-03-12T06:03:31.309Z,6.21
2023-03-12T06:05:59.735Z,6.25
2023-03-12T06:08:28.256Z,6.28
2023-03-12T06:10:58.060Z,6.35
2023-03-12T06:13:28.147Z,6.38
2023-03-12T06:16:02.238Z,6.45
2023-03-12T06:18:30.662Z,6.52
2023-03-12T06:21:10.771Z,6.60
2023-03-12T06:23:39.384Z,6.68
2023-03-12T06:26:12.942Z,6.74
2023-03-12T06:28:41.583Z,6.82
2023-03-12T06:31:10.676Z,6.88
2023-03-12T06:33:39.195Z,6.93
2023-03-12T06:36:10.814Z,6.99
2023-03-12T06:38:40.058Z,7.03
2023-03-12T06:41:12.634Z,7.06
2023-03-12T06:43:42.138Z,7.09
2023-03-12T06:46:14.777Z,7.15
2023-03-12T06:48:44.171Z,7.24
2023-03-12T06:51:15.187Z,7.32
2023-03-12T06:53:44.203Z,7.41
2023-03-12T06:56:14.868Z,7.55
2023-03-12T06:58:43.678Z,7.75
2023-03-12T07:01:12.202Z,8.03
2023-03-12T07:03:40.824Z,8.31
2023-03-12T07:06:16.235Z,8.46
2023-03-12T07:08:45.042Z,8.57
2023-03-12T07:11:15.422Z,8.65
2023-03-12T07:13:43.876Z,8.72
2023-03-12T07:16:13.048Z,8.78
2023-03-12T07:18:41.490Z,8.84
2023-03-12T07:21:09.958Z,8.90
2023-03-12T07:23:38.425Z,8.97
2023-03-12T07:26:07.543Z,9.02
2023-03-12T07:28:37.336Z,9.04
2023-03-12T07:31:06.785Z,9.05
2023-03-12T07:33:35.693Z,9.08
2023-03-12T07:36:04.500Z,9.13
2023-03-12T07:38:33.200Z,9.20
2023-03-12T07:41:01.693Z,9.31
2023-03-12T07:43:30.287Z,9.43
2023-03-12T07:46:00.121Z,9.55
2023-03-12T07:48:28.676Z,9.69
2023-03-12T07:50:57.076Z,9.80
2023-03-12T07:53:25.543Z,9.92
2023-03-12T07:55:54.940Z,10.04
2023-03-12T07:58:23.635Z,10.11
2023-03-12T08:00:53.730Z,10.18
2023-03-12T08:03:23.780Z,10.24
2023-03-12T08:06:00.775Z,10.29
2023-03-12T08:08:30.106Z,10.37
2023-03-12T08:10:59.144Z,10.44
2023-03-12T08:13:28.201Z,10.53
2023-03-12T08:15:56.987Z,10.65
2023-03-12T08:18:27.091Z,10.74
2023-03-12T08:20:56.060Z,10.80
2023-03-12T08:23:24.675Z,10.84
2023-03-12T08:25:53.648Z,10.89
2023-03-12T08:28:25.361Z,10.96
2023-03-12T08:30:56.531Z,11.00
2023-03-12T08:33:26.447Z,11.08
2023-03-12T08:35:55.116Z,11.14
2023-03-12T08:38:24.051Z,11.18
2023-03-12T08:40:58.105Z,11.27
2023-03-12T08:43:29.186Z,11.33
2023-03-12T08:45:59.193Z,11.37
2023-03-12T08:48:31.264Z,11.41
2023-03-12T08:51:04.107Z,11.51
2023-03-12T08:53:34.589Z,11.60
2023-03-12T08:56:03.856Z,11.68
2023-03-12T08:58:32.996Z,11.77
2023-03-12T09:01:01.732Z,11.85
2023-03-12T09:03:31.696Z,11.89
2023-03-12T09:06:10.731Z,11.94
2023-03-12T09:08:39.200Z,12.04
2023-03-12T09:11:09.697Z,12.09
2023-03-12T09:13:59.718Z,12.17
2023-03-12T09:16:26.906Z,12.30
2023-03-12T09:18:56.917Z,12.37
2023-03-12T09:21:25.385Z,12.36
2023-03-12T09:23:53.820Z,12.35
2023-03-12T09:26:22.268Z,12.36
2023-03-12T09:28:51.003Z,12.41
2023-03-12T09:31:19.719Z,12.44
2023-03-12T09:33:48.246Z,12.47
2023-03-12T09:36:18.073Z,12.50
2023-03-12T09:38:46.458Z,12.54
2023-03-12T09:41:21.805Z,12.59
2023-03-12T09:43:56.206Z,12.62
2023-03-12T09:46:32.143Z,12.63
2023-03-12T09:49:07.716Z,12.66
2023-03-12T09:51:42.567Z,12.70
2023-03-12T09:54:25.930Z,12.71
2023-03-12T09:56:56.527Z,12.73
2023-03-12T09:59:25.417Z,12.68
2023-03-12T10:01:59.533Z,12.67
2023-03-12T10:04:58.525Z,12.64
2023-03-12T10:07:36.100Z,12.66
2023-03-12T10:10:33.299Z,12.71
2023-03-12T10:13:38.834Z,12.72
2023-03-12T10:16:18.056Z,12.74
2023-03-12T10:19:08.578Z,12.68
2023-03-12T10:21:46.946Z,12.67
2023-03-12T10:24:32.384Z,12.69
2023-03-12T10:27:01.955Z,12.75
2023-03-12T10:29:34.363Z,12.78
2023-03-12T10:32:09.612Z,12.78
2023-03-12T10:34:43.801Z,12.81
2023-03-12T10:37:19.977Z,12.84
2023-03-12T10:39:50.327Z,12.90
2023-03-12T10:42:21.227Z,12.96
2023-03-12T10:44:53.880Z,13.03
2023-03-12T10:47:36.843Z,13.30
2023-03-12T10:50:18.902Z,13.70
2023-03-12T10:52:49.312Z,14.18
2023-03-12T10:55:30.626Z,14.74
2023-03-12T10:57:59.722Z,15.27
2023-03-12T11:00:32.183Z,15.76
2023-03-12T11:03:03.666Z,16.23
2023-03-12T11:05:36.201Z,16.65
2023-03-12T11:08:20.091Z,17.10
2023-03-12T11:10:49.946Z,17.42
2023-03-12T11:13:26.823Z,17.72
2023-03-12T11:15:57.182Z,18.09
2023-03-12T11:18:35.806Z,18.49
2023-03-12T11:21:19.732Z,18.90
2023-03-12T11:24:07.550Z,19.29
2023-03-12T11:26:48.451Z,19.72
2023-03-12T11:29:28.361Z,19.98
2023-03-12T11:32:07.812Z,20.04
2023-03-12T11:34:39.849Z,20.18
2023-03-12T11:37:15.919Z,20.45
2023-03-12T11:40:10.942Z,20.70
2023-03-12T11:43:05.993Z,21.02
2023-03-12T11:45:51.696Z,21.37
2023-03-12T11:48:26.558Z,21.53
2023-03-12T11:51:15.270Z,21.52
2023-03-12T11:54:40.473Z,21.29
2023-03-12T11:57:17.376Z,21.11
2023-03-12T12:00:07.163Z,20.95
2023-03-12T12:03:22.613Z,20.72
2023-03-12T12:06:02.675Z,20.62
2023-03-12T12:08:49.395Z,20.74
2023-03-12T12:11:28.230Z,20.94
2023-03-12T12:14:15.067Z,21.24
2023-03-12T12:17:00.199Z,21.43
2023-03-12T12:19:47.920Z,21.46
2023-03-12T12:22:36.450Z,21.42
2023-03-12T12:25:35.146Z,21.66
2023-03-12T12:28:27.041Z,22.22
2023-03-12T12:31:09.249Z,22.51
2023-03-12T12:34:10.709Z,22.73
2023-03-12T12:36:39.484Z,22.81
2023-03-12T12:39:17.508Z,22.74
2023-03-12T12:41:52.521Z,22.44
2023-03-12T12:44:28.262Z,22.11
2023-03-12T12:47:02.583Z,21.81
2023-03-12T12:49:43.550Z,21.61
2023-03-12T12:52:20.108Z,21.60
2023-03-12T12:55:00.473Z,21.46
2023-03-12T12:57:39.141Z,21.25
2023-03-12T13:00:24.107Z,20.93
2023-03-12T13:02:53.304Z,20.61
2023-03-12T13:05:41.117Z,20.09
2023-03-12T13:08:30.454Z,19.64
2023-03-12T13:11:16.248Z,19.29
2023-03-12T13:13:49.953Z,19.06
2023-03-12T13:16:32.641Z,18.85
2023-03-12T13:19:06.159Z,18.64
2023-03-12T13:21:41.238Z,18.38
2023-03-12T13:24:24.961Z,18.04
2023-03-12T13:27:01.959Z,17.86
2023-03-12T13:29:42.896Z,17.72
2023-03-12T13:32:59.787Z,17.68
2023-03-12T13:35:34.585Z,17.69
2023-03-12T13:38:13.234Z,17.68
2023-03-12T13:41:02.746Z,17.66
2023-03-12T13:43:52.202Z,17.68
2023-03-12T13:46:45.963Z,17.67
2023-03-12T13:49:20.963Z,17.68
2023-03-12T13:52:20.716Z,17.62
2023-03-12T13:55:00.044Z,17.54
2023-03-12T13:57:40.499Z,17.44
2023-03-12T14:00:20.779Z,17.35
2023-03-12T14:02:55.095Z,17.28
2023-03-12T14:05:24.638Z,17.21
2023-03-12T14:08:23.633Z,17.09
2023-03-12T14:11:21.533Z,17.03
2023-03-12T14:14:18.538Z,17.01
2023-03-12T14:16:52.702Z,17.03
2023-03-12T14:19:27.570Z,17.03
2023-03-12T14:22:01.230Z,17.03
2023-03-12T14:24:34.744Z,16.96
2023-03-12T14:27:08.120Z,16.88
2023-03-12T14:29:40.156Z,16.80
2023-03-12T14:32:19.119Z,16.69
2023-03-12T14:34:53.687Z,16.61
2023-03-12T14:37:26.792Z,16.51
2023-03-12T14:39:58.980Z,16.42
2023-03-12T14:42:33.372Z,16.34
2023-03-12T14:45:05.423Z,16.26
2023-03-12T14:47:43.756Z,16.17
2023-03-12T14:50:20.434Z,16.08
2023-03-12T14:52:49.928Z,16.05
2023-03-12T14:55:23.623Z,16.00
2023-03-12T14:58:06.018Z,15.92
2023-03-12T15:00:36.019Z,15.91
2023-03-12T15:03:15.355Z,15.89
2023-03-12T15:05:48.684Z,15.89
2023-03-12T15:08:18.224Z,15.89
2023-03-12T15:10:53.722Z,15.86
2023-03-12T15:13:25.642Z,15.85
2023-03-12T15:15:56.708Z,15.84
2023-03-12T15:18:30.585Z,15.84
2023-03-12T15:21:03.372Z,15.84
2023-03-12T15:23:36.456Z,15.84
2023-03-12T15:26:15.449Z,15.83
2023-03-12T15:28:46.569Z,15.85
2023-03-12T15:31:19.405Z,15.85
2023-03-12T15:34:02.902Z,15.82
2023-03-12T15:36:34.308Z,15.83
2023-03-12T15:39:06.812Z,15.82
2023-03-12T15:41:45.428Z,15.79
2023-03-12T15:44:22.155Z,15.80
2023-03-12T15:46:55.405Z,15.79
2023-03-12T15:49:31.208Z,15.71
2023-03-12T15:52:06.595Z,15.68
2023-03-12T15:54:40.993Z,15.62
2023-03-12T15:57:26.294Z,15.54
2023-03-12T16:00:32.478Z,15.42
2023-03-12T16:03:11.558Z,15.41
2023-03-12T16:05:42.375Z,15.37
2023-03-12T16:08:21.118Z,15.36
2023-03-12T16:10:52.191Z,15.35
2023-03-12T16:13:27.007Z,15.33
2023-03-12T16:15:56.645Z,15.30
2023-03-12T16:18:27.301Z,15.28
2023-03-12T16:20:58.138Z,15.24
2023-03-12T16:23:27.556Z,15.20
2023-03-12T16:25:58.152Z,15.15
2023-03-12T16:28:28.933Z,15.10
2023-03-12T16:30:59.444Z,15.08
2023-03-12T16:33:29.972Z,15.07
2023-03-12T16:36:02.130Z,15.06
2023-03-12T16:38:31.997Z,15.08
2023-03-12T16:41:01.704Z,15.09
2023-03-12T16:43:34.374Z,15.09
2023-03-12T16:46:05.983Z,15.10
2023-03-12T16:48:36.364Z,15.09
2023-03-12T16:51:14.056Z,15.06
2023-03-12T16:53:43.796Z,15.04
2023-03-12T16:56:20.379Z,14.99
2023-03-12T16:58:50.228Z,14.96
2023-03-12T17:01:23.172Z,14.93
2023-03-12T17:03:54.663Z,14.96
2023-03-12T17:06:29.367Z,14.97
2023-03-12T17:08:59.702Z,14.99
2023-03-12T17:11:38.083Z,15.00
2023-03-12T17:14:18.560Z,14.99
2023-03-12T17:16:49.845Z,14.97
2023-03-12T17:19:20.038Z,14.97
2023-03-12T17:21:54.069Z,14.96
2023-03-12T17:24:28.510Z,14.95
2023-03-12T17:26:58.642Z,14.94
2023-03-12T17:29:30.067Z,14.92
2023-03-12T17:32:00.453Z,14.93
2023-03-12T17:34:30.792Z,14.91
2023-03-12T17:37:03.280Z,14.87
2023-03-12T17:39:33.141Z,14.83
2023-03-12T17:42:04.366Z,14.78
2023-03-12T17:44:37.831Z,14.75
2023-03-12T17:47:08.505Z,14.76
2023-03-12T17:49:40.149Z,14.76
2023-03-12T17:52:13.213Z,14.77
2023-03-12T17:54:45.513Z,14.75
2023-03-12T17:57:17.672Z,14.74
2023-03-12T17:59:49.286Z,14.71
2023-03-12T18:02:19.625Z,14.72
2023-03-12T18:04:50.454Z,14.70
2023-03-12T18:07:22.883Z,14.71
2023-03-12T18:09:56.388Z,14.70
2023-03-12T18:12:26.514Z,14.70
2023-03-12T18:14:55.951Z,14.69
2023-03-12T18:17:25.956Z,14.70
2023-03-12T18:19:55.745Z,14.71
2023-03-12T18:22:28.421Z,14.73
2023-03-12T18:24:59.615Z,14.72
2023-03-12T18:27:33.794Z,14.69
2023-03-12T18:30:05.847Z,14.69
2023-03-12T18:32:37.309Z,14.70
2023-03-12T18:35:08.355Z,14.70
2023-03-12T18:37:39.952Z,14.71
2023-03-12T18:40:12.966Z,14.73
2023-03-12T18:42:44.743Z,14.74
2023-03-12T18:45:19.078Z,14.73
2023-03-12T18:47:51.042Z,14.73
2023-03-12T18:50:22.344Z,14.73
2023-03-12T18:52:54.829Z,14.72
2023-03-12T18:55:24.919Z,14.69
2023-03-12T18:57:55.046Z,14.67
2023-03-12T19:00:26.090Z,14.66
2023-03-12T19:02:58.567Z,14.64
2023-03-12T19:05:31.050Z,14.63
2023-03-12T19:08:03.866Z,14.65
2023-03-12T19:10:34.811Z,14.64
2023-03-12T19:13:05.028Z,14.64
2023-03-12T19:15:39.185Z,14.65
2023-03-12T19:18:10.317Z,14.67
2023-03-12T19:20:41.976Z,14.67
2023-03-12T19:23:14.053Z,14.68
2023-03-12T19:25:51.288Z,14.68
2023-03-12T19:28:22.556Z,14.64
2023-03-12T19:30:52.410Z,14.63
2023-03-12T19:33:25.858Z,14.62
2023-03-12T19:35:58.441Z,14.60
2023-03-12T19:38:30.867Z,14.60
2023-03-12T19:41:04.725Z,14.57
2023-03-12T19:43:36.985Z,14.56
2023-03-12T19:46:08.703Z,14.56
2023-03-12T19:48:39.724Z,14.57
2023-03-12T19:51:14.141Z,14.55
2023-03-12T19:53:46.134Z,14.55
2023-03-12T19:56:19.413Z,14.54
2023-03-12T19:58:52.759Z,14.54
2023-03-12T20:01:23.179Z,14.52
2023-03-12T20:03:53.565Z,14.53
2023-03-12T20:06:23.521Z,14.53
2023-03-12T20:08:56.377Z,14.50
2023-03-12T20:11:25.889Z,14.48
2023-03-12T20:13:56.466Z,14.45
2023-03-12T20:16:28.888Z,14.41
2023-03-12T20:19:00.387Z,14.36
2023-03-12T20:21:31.403Z,14.37
2023-03-12T20:24:04.274Z,14.37
2023-03-12T20:26:40.073Z,14.35
2023-03-12T20:29:11.296Z,14.32
2023-03-12T20:31:44.069Z,14.30
2023-03-12T20:34:14.523Z,14.29
2023-03-12T20:36:45.319Z,14.26
2023-03-12T20:39:17.345Z,14.22
2023-03-12T20:41:47.660Z,14.19
2023-03-12T20:44:18.892Z,14.13
2023-03-12T20:46:49.639Z,14.07
2023-03-12T20:49:21.721Z,14.02
2023-03-12T20:51:52.019Z,13.97
2023-03-12T20:54:25.168Z,13.92
2023-03-12T20:56:54.879Z,13.92
2023-03-12T20:59:24.639Z,13.91
2023-03-12T21:01:55.258Z,13.90
2023-03-12T21:04:25.766Z,13.89
2023-03-12T21:06:56.858Z,13.86
2023-03-12T21:09:28.392Z,13.82
2023-03-12T21:11:59.784Z,13.77
2023-03-12T21:14:30.577Z,13.72
2023-03-12T21:17:00.356Z,13.67
2023-03-12T21:19:30.942Z,13.64
2023-03-12T21:21:59.645Z,13.61
2023-03-12T21:24:31.698Z,13.58
2023-03-12T21:27:00.252Z,13.58
2023-03-12T21:29:29.279Z,13.58
2023-03-12T21:31:57.712Z,13.61
2023-03-12T21:34:26.529Z,13.64
2023-03-12T21:36:55.146Z,13.66
2023-03-12T21:39:24.379Z,13.69
2023-03-12T21:41:56.191Z,13.73
2023-03-12T21:44:25.220Z,13.76
2023-03-12T21:46:53.772Z,13.79
2023-03-12T21:49:22.548Z,13.80
2023-03-12T21:51:51.245Z,13.82
2023-03-12T21:54:19.748Z,13.82
2023-03-12T21:56:48.269Z,13.84
2023-03-12T21:59:18.081Z,13.83
2023-03-12T22:01:46.562Z,13.85
2023-03-12T22:04:15.188Z,13.87
2023-03-12T22:06:43.636Z,13.90
2023-03-12T22:09:12.093Z,13.93
2023-03-12T22:11:41.549Z,13.96
2023-03-12T22:14:10.142Z,14.01
2023-03-12T22:16:39.996Z,14.04
2023-03-12T22:19:09.375Z,14.08
2023-03-12T22:21:38.185Z,14.13
2023-03-12T22:24:07.416Z,14.16
2023-03-12T22:26:36.174Z,14.20
2023-03-12T22:29:05.292Z,14.21
2023-03-12T22:31:33.782Z,14.21
2023-03-12T22:34:03.707Z,14.22
2023-03-12T22:36:32.173Z,14.23
2023-03-12T22:39:00.608Z,14.21
2023-03-12T22:41:31.504Z,14.16
2023-03-12T22:44:05.064Z,14.14
2023-03-12T22:46:34.226Z,14.12
2023-03-12T22:49:05.975Z,14.12
2023-03-12T22:51:36.393Z,14.13
2023-03-12T22:54:05.462Z,14.13
2023-03-12T22:56:33.930Z,14.15
2023-03-12T22:59:02.379Z,14.16
2023-03-12T23:01:30.966Z,14.19
2023-03-12T23:03:59.883Z,14.23
2023-03-12T23:06:30.587Z,14.26
2023-03-12T23:08:59.552Z,14.30
2023-03-12T23:11:29.803Z,14.34
2023-03-12T23:13:58.698Z,14.37
2023-03-12T23:16:28.015Z,14.38
2023-03-12T23:18:57.234Z,14.42
2023-03-12T23:21:26.672Z,14.44
2023-03-12T23:23:56.512Z,14.46
2023-03-12T23:26:28.677Z,14.46
2023-03-12T23:28:58.868Z,14.45
2023-03-12T23:31:28.507Z,14.45
2023-03-12T23:33:58.471Z,14.44
2023-03-12T23:36:27.386Z,14.42
2023-03-12T23:38:57.515Z,14.39
2023-03-12T23:41:29.468Z,14.37
2023-03-12T23:43:59.713Z,14.35
2023-03-12T23:46:28.350Z,14.34
2023-03-12T23:48:58.328Z,14.33
2023-03-12T23:51:29.501Z,14.32
2023-03-12T23:54:01.517Z,14.30
2023-03-12T23:56:36.126Z,14.28
2023-03-12T23:59:05.949Z,14.28
